Bliss, Idaho
Current Conditions -  °F | °C
As of 2:53 PM on Tuesday 25 Nov 2014 (Local Time) from KJER Reporting Station
Overcast Overcast  
Wind Chill: 51°   Ceiling: 3900
Heat Index: 51°   Visibility: 10mi
Dew Point: 39°   Wind: 23mph
Humidity: 63%   Direction: 250°WSW
Pressure: 30.21"   Gusts: 33mph
Location:  42.93°N, 114.95°W
Report Text: KJER 252153Z AUTO 25020G29KT 10SM OVC039 11/04 A3021 RMK AO2 PK WND 24029/2151 SLP232 T01060039
Loading
Personal Weather Stations






























Interactive Weather Map New forecast layout! Learn more

10-Day Weather Forecast

Advertisements
Track Severe Weather on mobile